createdAt,value
2018-12-31T00:00:04.397Z,0
2018-12-31T00:01:04.268Z,0
2018-12-31T00:02:04.283Z,0
2018-12-31T00:03:04.295Z,0
2018-12-31T00:04:04.307Z,0
2018-12-31T00:05:04.323Z,0
2018-12-31T00:06:04.433Z,0
2018-12-31T00:07:04.352Z,0
2018-12-31T00:08:04.368Z,0
2018-12-31T00:09:19.174Z,0
2018-12-31T00:10:04.396Z,0
2018-12-31T00:11:04.412Z,0
2018-12-31T00:12:04.429Z,0
2018-12-31T00:13:04.444Z,0
2018-12-31T00:14:04.455Z,0
2018-12-31T00:15:04.485Z,0
2018-12-31T00:16:04.487Z,0
2018-12-31T00:17:04.500Z,0
2018-12-31T00:18:04.518Z,0
2018-12-31T00:19:04.535Z,0
2018-12-31T00:21:04.556Z,0
2018-12-31T00:22:19.235Z,0
2018-12-31T00:23:04.587Z,0
2018-12-31T00:24:19.381Z,0
2018-12-31T00:25:04.631Z,0
2018-12-31T00:26:04.629Z,0
2018-12-31T00:27:04.403Z,0
2018-12-31T00:28:04.664Z,0
2018-12-31T00:29:04.679Z,0
2018-12-31T00:30:19.356Z,0
2018-12-31T00:31:04.707Z,0
2018-12-31T00:32:04.721Z,0
2018-12-31T00:33:04.735Z,0
2018-12-31T00:34:19.411Z,0
2018-12-31T00:38:04.806Z,0
2018-12-31T00:39:04.821Z,0
2018-12-31T00:40:04.999Z,0
2018-12-31T00:41:04.855Z,0
2018-12-31T00:42:04.865Z,0
2018-12-31T00:43:06.360Z,0
2018-12-31T00:44:04.899Z,0
2018-12-31T00:45:04.992Z,0
2018-12-31T00:46:04.922Z,0
2018-12-31T00:47:19.703Z,0
2018-12-31T00:48:04.953Z,0
2018-12-31T00:49:19.632Z,0
2018-12-31T00:50:04.984Z,0
2018-12-31T00:51:05.018Z,0
2018-12-31T00:52:05.014Z,0
2018-12-31T00:53:19.687Z,0
2018-12-31T00:54:19.705Z,0
2018-12-31T00:55:19.722Z,0
2018-12-31T00:56:19.732Z,0
2018-12-31T00:57:05.091Z,0
2018-12-31T00:58:05.101Z,0
2018-12-31T00:59:05.120Z,0
2018-12-31T01:00:05.129Z,0
2018-12-31T01:01:05.156Z,0
2018-12-31T01:03:04.934Z,0
2018-12-31T01:04:05.191Z,0
2018-12-31T01:05:05.201Z,0
2018-12-31T01:06:05.218Z,0
2018-12-31T01:07:05.229Z,0
2018-12-31T01:08:19.912Z,0
2018-12-31T01:10:05.275Z,0
2018-12-31T01:11:05.300Z,0
2018-12-31T01:12:19.966Z,0
2018-12-31T01:13:05.328Z,0
2018-12-31T01:14:05.347Z,0
2018-12-31T01:15:05.351Z,0
2018-12-31T01:16:05.362Z,0
2018-12-31T01:17:05.402Z,0
2018-12-31T01:18:05.399Z,0
2018-12-31T01:19:20.072Z,0
2018-12-31T01:20:05.424Z,0
2018-12-31T01:21:05.446Z,0
2018-12-31T01:22:05.457Z,0
2018-12-31T01:24:05.481Z,0
2018-12-31T01:25:05.494Z,0
2018-12-31T01:26:05.509Z,0
2018-12-31T01:27:05.528Z,0
2018-12-31T01:28:20.212Z,0
2018-12-31T01:29:05.553Z,0
2018-12-31T01:31:05.585Z,0
2018-12-31T01:32:05.598Z,0
2018-12-31T01:33:05.610Z,0
2018-12-31T01:34:20.292Z,0
2018-12-31T01:35:20.327Z,0
2018-12-31T01:36:05.655Z,0
2018-12-31T01:37:20.334Z,0
2018-12-31T01:38:05.685Z,0
2018-12-31T01:39:05.700Z,0
2018-12-31T01:40:05.714Z,0
2018-12-31T01:41:20.393Z,0
2018-12-31T01:42:05.748Z,0
2018-12-31T01:44:20.438Z,0
2018-12-31T01:45:05.790Z,0
2018-12-31T01:46:05.828Z,0
2018-12-31T01:47:05.817Z,0
2018-12-31T01:48:05.832Z,0
2018-12-31T01:49:05.850Z,0
2018-12-31T01:50:05.860Z,0
2018-12-31T01:52:05.901Z,0
2018-12-31T01:53:05.911Z,0
2018-12-31T01:54:05.969Z,0
2018-12-31T01:55:05.941Z,0
2018-12-31T01:56:05.973Z,0
2018-12-31T01:57:05.963Z,0
2018-12-31T01:58:05.982Z,0
2018-12-31T01:59:20.659Z,0
2018-12-31T02:00:20.713Z,0
2018-12-31T02:01:06.031Z,0
2018-12-31T02:02:06.043Z,0
2018-12-31T02:03:06.057Z,0
2018-12-31T02:04:06.073Z,0
2018-12-31T02:05:06.080Z,0
2018-12-31T02:06:06.097Z,0
2018-12-31T02:07:06.114Z,0
2018-12-31T02:08:06.131Z,0
2018-12-31T02:09:06.146Z,0
2018-12-31T02:10:06.155Z,0
2018-12-31T02:12:06.192Z,0
2018-12-31T02:13:06.203Z,0
2018-12-31T02:14:06.219Z,0
2018-12-31T02:15:06.233Z,0
2018-12-31T02:16:06.263Z,0
2018-12-31T02:18:06.274Z,0
2018-12-31T02:19:06.289Z,0
2018-12-31T02:20:06.309Z,0
2018-12-31T02:21:06.414Z,0
2018-12-31T02:22:06.330Z,0
2018-12-31T02:23:06.344Z,0
2018-12-31T02:25:06.382Z,0
2018-12-31T02:26:06.400Z,0
2018-12-31T02:28:06.496Z,0
2018-12-31T02:29:06.434Z,0
2018-12-31T02:30:06.485Z,0
2018-12-31T02:31:21.135Z,0
2018-12-31T02:32:06.480Z,0
2018-12-31T02:33:06.500Z,0
2018-12-31T02:34:06.508Z,0
2018-12-31T02:35:20.951Z,0
2018-12-31T02:36:06.546Z,0
2018-12-31T02:37:06.555Z,0
2018-12-31T02:38:06.573Z,0
2018-12-31T02:40:06.599Z,0
2018-12-31T02:41:21.290Z,0
2018-12-31T02:42:06.633Z,0
2018-12-31T02:43:21.306Z,0
2018-12-31T02:44:06.655Z,0
2018-12-31T02:46:06.687Z,0
2018-12-31T02:47:21.365Z,0
2018-12-31T02:48:06.718Z,0
2018-12-31T02:49:06.810Z,0
2018-12-31T02:51:06.776Z,0
2018-12-31T02:52:06.773Z,0
2018-12-31T02:53:06.791Z,0
2018-12-31T02:54:06.813Z,0
2018-12-31T02:55:06.857Z,0
2018-12-31T02:56:06.837Z,0
2018-12-31T02:57:06.856Z,0
2018-12-31T02:58:06.867Z,0
2018-12-31T02:59:06.893Z,0
2018-12-31T03:00:06.910Z,0
2018-12-31T03:01:06.904Z,0
2018-12-31T03:02:06.931Z,0
2018-12-31T03:03:21.598Z,0
2018-12-31T03:04:06.947Z,0
2018-12-31T03:05:06.969Z,0
2018-12-31T03:06:06.983Z,0
2018-12-31T03:07:07.003Z,0
2018-12-31T03:08:07.021Z,0
2018-12-31T03:11:07.065Z,0
2018-12-31T03:12:07.065Z,0
2018-12-31T03:13:07.084Z,0
2018-12-31T03:15:21.776Z,0
2018-12-31T03:17:07.145Z,0
2018-12-31T03:18:21.831Z,0
2018-12-31T03:19:21.833Z,0
2018-12-31T03:20:21.942Z,0
2018-12-31T03:21:07.216Z,0
2018-12-31T03:22:21.884Z,0
2018-12-31T03:23:07.255Z,0
2018-12-31T03:24:07.244Z,0
2018-12-31T03:25:07.372Z,0
2018-12-31T03:26:07.280Z,0
2018-12-31T03:27:21.953Z,0
2018-12-31T03:28:21.967Z,0
2018-12-31T03:29:21.981Z,0
2018-12-31T03:30:07.440Z,0
2018-12-31T03:31:07.367Z,0
2018-12-31T03:32:07.428Z,0
2018-12-31T03:33:22.085Z,0
2018-12-31T03:34:22.080Z,0
2018-12-31T03:35:07.421Z,0
2018-12-31T03:36:07.426Z,0
2018-12-31T03:37:07.443Z,0
2018-12-31T03:38:07.451Z,0
2018-12-31T03:39:07.534Z,0
2018-12-31T03:40:07.484Z,0
2018-12-31T03:41:07.497Z,0
2018-12-31T03:42:22.174Z,0
2018-12-31T03:43:22.189Z,0
2018-12-31T03:44:22.205Z,0
2018-12-31T03:45:07.564Z,0
2018-12-31T03:47:07.582Z,0
2018-12-31T03:48:07.602Z,0
2018-12-31T03:50:07.639Z,0
2018-12-31T03:51:07.661Z,0
2018-12-31T03:52:07.661Z,0
2018-12-31T03:53:07.684Z,0
2018-12-31T03:54:07.688Z,0
2018-12-31T03:55:07.711Z,0
2018-12-31T03:56:07.723Z,0
2018-12-31T03:57:22.399Z,0
2018-12-31T03:58:07.764Z,0
2018-12-31T04:00:07.784Z,0
2018-12-31T04:01:07.791Z,0
2018-12-31T04:02:07.810Z,0
2018-12-31T04:03:07.830Z,0
2018-12-31T04:04:07.834Z,0
2018-12-31T04:05:07.860Z,0
2018-12-31T04:06:22.530Z,0
2018-12-31T04:07:07.900Z,0
2018-12-31T04:08:07.935Z,0
2018-12-31T04:09:07.914Z,0
2018-12-31T04:10:07.450Z,0
2018-12-31T04:11:07.939Z,0
2018-12-31T04:12:07.954Z,0
2018-12-31T04:13:07.969Z,0
2018-12-31T04:14:22.648Z,0
2018-12-31T04:15:08.016Z,0
2018-12-31T04:16:22.684Z,0
2018-12-31T04:17:08.047Z,0
2018-12-31T04:18:22.717Z,0
2018-12-31T04:19:08.144Z,0
2018-12-31T04:20:08.074Z,0
2018-12-31T04:21:08.098Z,0
2018-12-31T04:22:22.765Z,0
2018-12-31T04:23:08.124Z,0
2018-12-31T04:24:22.801Z,0
2018-12-31T04:25:08.182Z,0
2018-12-31T04:27:08.191Z,0
2018-12-31T04:28:08.190Z,0
2018-12-31T04:29:08.207Z,0
2018-12-31T04:30:22.890Z,0
2018-12-31T04:31:08.263Z,0
2018-12-31T04:32:08.251Z,0
2018-12-31T04:34:08.347Z,0
2018-12-31T04:36:08.065Z,0
2018-12-31T04:37:08.365Z,0
2018-12-31T04:38:23.004Z,0
2018-12-31T04:40:23.041Z,0
2018-12-31T04:41:08.388Z,0
2018-12-31T04:42:08.397Z,0
2018-12-31T04:43:08.416Z,0
2018-12-31T04:44:08.433Z,0
2018-12-31T04:45:08.447Z,0
2018-12-31T04:46:23.121Z,0
2018-12-31T04:47:23.134Z,0
2018-12-31T04:48:08.499Z,0
2018-12-31T04:49:08.499Z,0
2018-12-31T04:50:08.524Z,0
2018-12-31T04:51:08.530Z,0
2018-12-31T04:52:08.556Z,0
2018-12-31T04:53:08.574Z,0
2018-12-31T04:54:23.257Z,0
2018-12-31T04:55:08.611Z,0
2018-12-31T04:56:08.603Z,0
2018-12-31T04:57:23.287Z,0
2018-12-31T04:58:23.545Z,0
2018-12-31T04:59:08.662Z,0
2018-12-31T05:00:08.667Z,0
2018-12-31T05:01:08.680Z,0
2018-12-31T05:02:08.701Z,0
2018-12-31T05:03:08.708Z,0
2018-12-31T05:04:08.726Z,0
2018-12-31T05:05:08.804Z,0
2018-12-31T05:06:08.753Z,0
2018-12-31T05:08:08.780Z,0
2018-12-31T05:09:23.463Z,0
2018-12-31T05:10:08.837Z,0
2018-12-31T05:11:08.836Z,0
2018-12-31T05:12:08.846Z,0
2018-12-31T05:13:08.860Z,0
2018-12-31T05:14:23.665Z,0
2018-12-31T05:15:08.897Z,0
2018-12-31T05:16:08.907Z,0
2018-12-31T05:17:08.920Z,0
2018-12-31T05:19:09.054Z,0
2018-12-31T05:20:08.975Z,0
2018-12-31T05:21:08.988Z,0
2018-12-31T05:22:23.655Z,0
2018-12-31T05:23:10.406Z,0
2018-12-31T05:24:09.023Z,0
2018-12-31T05:25:09.055Z,0
2018-12-31T05:26:09.053Z,0
2018-12-31T05:27:09.070Z,0
2018-12-31T05:28:09.076Z,0
2018-12-31T05:29:09.107Z,0
2018-12-31T05:30:09.110Z,0
2018-12-31T05:31:09.121Z,0
2018-12-31T05:33:09.309Z,0
2018-12-31T05:34:23.829Z,0
2018-12-31T05:35:09.187Z,0
2018-12-31T05:36:23.863Z,0
2018-12-31T05:37:09.263Z,0
2018-12-31T05:38:09.267Z,0
2018-12-31T05:39:23.931Z,0
2018-12-31T05:41:23.935Z,0
2018-12-31T05:43:09.305Z,0
2018-12-31T05:44:09.070Z,0
2018-12-31T05:45:09.328Z,0
2018-12-31T05:46:09.346Z,0
2018-12-31T05:47:09.371Z,0
2018-12-31T05:48:09.416Z,0
2018-12-31T05:49:09.393Z,0
2018-12-31T05:50:09.419Z,0
2018-12-31T05:51:09.434Z,0
2018-12-31T05:52:09.433Z,0
2018-12-31T05:53:24.109Z,0
2018-12-31T05:54:09.462Z,0
2018-12-31T05:55:09.481Z,0
2018-12-31T05:56:09.492Z,0
2018-12-31T05:57:24.169Z,0
2018-12-31T05:59:09.538Z,0
2018-12-31T06:00:09.557Z,0
2018-12-31T06:01:09.571Z,0
2018-12-31T06:02:09.593Z,0
2018-12-31T06:03:09.620Z,0
2018-12-31T06:04:09.636Z,0
2018-12-31T06:05:09.381Z,0
2018-12-31T06:06:24.301Z,0
2018-12-31T06:07:09.659Z,0
2018-12-31T06:08:09.785Z,0
2018-12-31T06:10:09.704Z,0
2018-12-31T06:11:09.833Z,0
2018-12-31T06:13:24.405Z,0
2018-12-31T06:15:09.784Z,0
2018-12-31T06:16:09.857Z,0
2018-12-31T06:17:10.062Z,0
2018-12-31T06:18:09.818Z,0
2018-12-31T06:19:09.833Z,0
2018-12-31T06:20:09.857Z,0
2018-12-31T06:21:24.578Z,0
2018-12-31T06:22:09.881Z,0
2018-12-31T06:23:09.901Z,0
2018-12-31T06:24:10.597Z,0
2018-12-31T06:25:09.971Z,0
2018-12-31T06:27:09.958Z,0
2018-12-31T06:28:10.042Z,0
2018-12-31T06:29:24.646Z,0
2018-12-31T06:30:09.998Z,0
2018-12-31T06:31:10.014Z,0
2018-12-31T06:32:10.028Z,0
2018-12-31T06:33:10.046Z,0
2018-12-31T06:34:10.055Z,0
2018-12-31T06:35:10.077Z,0
2018-12-31T06:36:10.092Z,0
2018-12-31T06:37:10.107Z,0
2018-12-31T06:38:10.117Z,0
2018-12-31T06:39:09.899Z,0
2018-12-31T06:40:10.165Z,0
2018-12-31T06:41:10.176Z,0
2018-12-31T06:43:10.199Z,4
2018-12-31T06:44:24.869Z,0
2018-12-31T06:45:10.224Z,0
2018-12-31T06:46:10.237Z,4
2018-12-31T06:47:10.005Z,0
2018-12-31T06:48:24.933Z,4
2018-12-31T06:49:10.284Z,4
2018-12-31T06:50:10.298Z,4
2018-12-31T06:51:10.312Z,4
2018-12-31T06:52:10.330Z,4
2018-12-31T06:53:10.345Z,8
2018-12-31T06:54:10.366Z,8
2018-12-31T06:55:25.037Z,8
2018-12-31T06:56:10.393Z,12
2018-12-31T06:57:10.399Z,12
2018-12-31T06:58:10.425Z,12
2018-12-31T06:59:10.449Z,12
2018-12-31T07:00:10.449Z,16
2018-12-31T07:01:10.461Z,24
2018-12-31T07:02:10.556Z,28
2018-12-31T07:03:10.491Z,28
2018-12-31T07:04:12.049Z,32
2018-12-31T07:05:10.528Z,36
2018-12-31T07:06:10.559Z,40
2018-12-31T07:07:10.552Z,44
2018-12-31T07:08:10.566Z,52
2018-12-31T07:09:10.582Z,60
2018-12-31T07:10:25.261Z,64
2018-12-31T07:11:10.616Z,68
2018-12-31T07:12:10.724Z,68
2018-12-31T07:14:10.660Z,80
2018-12-31T07:15:10.766Z,88
2018-12-31T07:16:25.346Z,100
2018-12-31T07:17:10.703Z,96
2018-12-31T07:18:10.714Z,104
2018-12-31T07:19:10.733Z,112
2018-12-31T07:20:10.758Z,112
2018-12-31T07:21:10.760Z,120
2018-12-31T07:22:10.776Z,128
2018-12-31T07:23:10.795Z,128
2018-12-31T07:24:25.471Z,136
2018-12-31T07:26:25.531Z,144
2018-12-31T07:27:10.854Z,148
2018-12-31T07:28:10.869Z,168
2018-12-31T07:29:25.545Z,180
2018-12-31T07:30:10.903Z,192
2018-12-31T07:31:10.911Z,220
2018-12-31T07:32:25.595Z,232
2018-12-31T07:34:10.974Z,232
2018-12-31T07:35:11.560Z,232
2018-12-31T07:36:10.989Z,244
2018-12-31T07:37:11.002Z,240
2018-12-31T07:38:11.023Z,260
2018-12-31T07:39:11.037Z,292
2018-12-31T07:40:11.051Z,288
2018-12-31T07:41:11.080Z,300
2018-12-31T07:42:25.741Z,316
2018-12-31T07:43:12.118Z,328
2018-12-31T07:44:25.780Z,356
2018-12-31T07:45:11.126Z,352
2018-12-31T07:46:11.138Z,364
2018-12-31T07:47:11.157Z,408
2018-12-31T07:48:25.838Z,396
2018-12-31T07:49:11.183Z,420
2018-12-31T07:50:11.207Z,460
2018-12-31T07:51:25.979Z,508
2018-12-31T07:52:11.235Z,532
2018-12-31T07:53:11.244Z,540
2018-12-31T07:54:11.263Z,564
2018-12-31T07:55:11.281Z,564
2018-12-31T07:56:25.955Z,532
2018-12-31T07:57:11.307Z,596
2018-12-31T07:58:26.043Z,644
2018-12-31T07:59:11.100Z,680
2018-12-31T08:00:11.352Z,700
2018-12-31T08:01:11.371Z,668
2018-12-31T08:02:11.382Z,652
2018-12-31T08:03:11.397Z,644
2018-12-31T08:04:26.074Z,628
2018-12-31T08:05:11.428Z,632
2018-12-31T08:06:11.497Z,628
2018-12-31T08:07:11.460Z,656
2018-12-31T08:08:11.478Z,708
2018-12-31T08:09:11.489Z,756
2018-12-31T08:10:11.502Z,908
2018-12-31T08:11:11.520Z,1080
2018-12-31T08:12:11.533Z,1252
2018-12-31T08:14:11.567Z,1300
2018-12-31T08:15:11.333Z,1408
2018-12-31T08:17:11.611Z,1268
2018-12-31T08:18:11.627Z,1348
2018-12-31T08:19:26.307Z,1516
2018-12-31T08:20:11.661Z,1608
2018-12-31T08:21:11.475Z,1632
2018-12-31T08:22:11.686Z,1608
2018-12-31T08:24:11.724Z,1464
2018-12-31T08:25:11.736Z,1548
2018-12-31T08:26:11.752Z,1628
2018-12-31T08:27:11.764Z,1664
2018-12-31T08:28:11.782Z,1720
2018-12-31T08:29:11.810Z,1728
2018-12-31T08:30:26.475Z,1692
2018-12-31T08:31:11.869Z,1752
2018-12-31T08:32:11.842Z,1796
2018-12-31T08:33:11.857Z,1972
2018-12-31T08:34:11.871Z,2196
2018-12-31T08:35:11.893Z,2292
2018-12-31T08:36:11.905Z,2256
2018-12-31T08:37:11.919Z,2220
2018-12-31T08:38:11.951Z,2348
2018-12-31T08:39:11.955Z,2428
2018-12-31T08:40:11.969Z,2336
2018-12-31T08:41:11.986Z,2292
2018-12-31T08:42:26.668Z,2296
2018-12-31T08:43:12.017Z,2204
2018-12-31T08:44:12.033Z,2088
2018-12-31T08:45:12.045Z,2104
2018-12-31T08:46:26.726Z,2064
2018-12-31T08:47:12.082Z,1908
2018-12-31T08:49:12.107Z,1708
2018-12-31T08:50:12.130Z,1648
2018-12-31T08:51:26.802Z,1804
2018-12-31T08:53:12.170Z,2440
2018-12-31T08:54:12.184Z,2740
2018-12-31T08:55:12.204Z,2700
2018-12-31T08:56:12.229Z,2692
2018-12-31T08:57:12.234Z,2844
2018-12-31T08:58:12.250Z,3112
2018-12-31T08:59:12.265Z,3504
2018-12-31T09:00:12.288Z,3976
2018-12-31T09:01:12.296Z,4208
2018-12-31T09:05:12.112Z,4468
2018-12-31T09:06:12.385Z,4692
2018-12-31T09:07:27.054Z,4824
2018-12-31T09:08:12.409Z,4876
2018-12-31T09:09:12.423Z,4868
2018-12-31T09:10:12.440Z,4756
2018-12-31T09:11:12.212Z,4420
2018-12-31T09:12:27.139Z,3688
2018-12-31T09:13:12.498Z,3356
2018-12-31T09:14:12.508Z,3216
2018-12-31T09:15:12.535Z,3284
2018-12-31T09:16:12.585Z,3308
2018-12-31T09:17:27.218Z,3384
2018-12-31T09:18:12.576Z,3452
2018-12-31T09:20:12.605Z,3620
2018-12-31T09:21:12.620Z,3688
2018-12-31T09:22:12.635Z,3708
2018-12-31T09:23:27.311Z,3648
2018-12-31T09:24:27.338Z,3640
2018-12-31T09:25:12.685Z,3656
2018-12-31T09:26:12.457Z,3672
2018-12-31T09:27:12.713Z,3904
2018-12-31T09:28:12.731Z,3780
2018-12-31T09:29:12.748Z,3512
2018-12-31T09:30:12.769Z,3448
2018-12-31T09:31:12.779Z,3336
2018-12-31T09:32:12.798Z,3248
2018-12-31T09:33:27.479Z,3252
2018-12-31T09:34:12.832Z,3340
2018-12-31T09:35:12.845Z,3416
2018-12-31T09:36:27.523Z,3464
2018-12-31T09:37:12.877Z,3488
2018-12-31T09:39:27.593Z,3880
2018-12-31T09:40:12.936Z,4032
2018-12-31T09:41:12.952Z,4396
2018-12-31T09:42:12.959Z,4828
2018-12-31T09:43:12.977Z,5188
2018-12-31T09:44:12.995Z,5412
2018-12-31T09:45:13.008Z,5324
2018-12-31T09:46:13.112Z,5100
2018-12-31T09:47:27.712Z,4780
2018-12-31T09:48:13.061Z,4612
2018-12-31T09:49:27.742Z,4260
2018-12-31T09:50:13.090Z,4096
2018-12-31T09:51:13.107Z,3936
2018-12-31T09:52:27.789Z,3852
2018-12-31T09:53:15.046Z,4020
2018-12-31T09:54:27.824Z,4264
2018-12-31T09:55:13.222Z,4328
2018-12-31T09:57:13.211Z,4208
2018-12-31T09:58:13.326Z,4020
2018-12-31T09:59:13.241Z,3944
2018-12-31T10:00:13.265Z,4120
2018-12-31T10:02:13.307Z,4368
2018-12-31T10:03:13.311Z,4564
2018-12-31T10:04:13.327Z,4744
2018-12-31T10:05:13.340Z,4852
2018-12-31T10:06:13.355Z,4980
2018-12-31T10:07:13.375Z,5252
2018-12-31T10:09:14.465Z,5788
2018-12-31T10:10:13.452Z,5820
2018-12-31T10:11:13.458Z,5508
2018-12-31T10:12:13.459Z,4864
2018-12-31T10:13:13.474Z,4492
2018-12-31T10:14:13.495Z,4188
2018-12-31T10:15:13.509Z,3840
2018-12-31T10:16:13.538Z,3992
2018-12-31T10:17:13.540Z,4388
2018-12-31T10:19:13.580Z,5348
2018-12-31T10:20:13.639Z,5588
2018-12-31T10:21:13.615Z,5672
2018-12-31T10:22:13.626Z,5588
2018-12-31T10:23:28.309Z,5548
2018-12-31T10:24:13.677Z,5468
2018-12-31T10:25:13.675Z,5428
2018-12-31T10:26:28.356Z,4996
2018-12-31T10:27:13.719Z,4844
2018-12-31T10:28:13.731Z,4652
2018-12-31T10:29:13.742Z,4652
2018-12-31T10:30:13.802Z,4892
2018-12-31T10:31:13.778Z,5108
2018-12-31T10:32:13.792Z,5088
2018-12-31T10:33:13.813Z,4616
2018-12-31T10:35:13.847Z,3660
2018-12-31T10:36:13.866Z,3376
2018-12-31T10:37:28.540Z,3052
2018-12-31T10:38:13.904Z,2952
2018-12-31T10:39:28.580Z,3016
2018-12-31T10:41:14.049Z,4072
2018-12-31T10:42:28.628Z,4604
2018-12-31T10:43:13.980Z,4740
2018-12-31T10:44:14.001Z,4796
2018-12-31T10:45:14.012Z,4724
2018-12-31T10:46:14.032Z,4580
2018-12-31T10:47:14.051Z,4396
2018-12-31T10:48:14.068Z,4236
2018-12-31T10:49:14.082Z,3936
2018-12-31T10:50:14.148Z,3684
2018-12-31T10:51:28.779Z,3492
2018-12-31T10:52:15.199Z,3420
2018-12-31T10:53:14.152Z,3392
2018-12-31T10:54:14.167Z,3456
2018-12-31T10:55:14.186Z,3468
2018-12-31T10:56:14.198Z,3412
2018-12-31T10:57:14.219Z,3356
2018-12-31T10:58:28.901Z,3512
2018-12-31T10:59:14.261Z,3648
2018-12-31T11:00:14.271Z,3860
2018-12-31T11:01:14.289Z,4048
2018-12-31T11:02:14.302Z,4112
2018-12-31T11:03:14.322Z,4052
2018-12-31T11:04:14.340Z,3912
2018-12-31T11:05:14.356Z,3924
2018-12-31T11:06:14.395Z,4076
2018-12-31T11:07:29.055Z,4356
2018-12-31T11:09:14.421Z,4880
2018-12-31T11:11:14.460Z,5684
2018-12-31T11:12:14.476Z,5540
2018-12-31T11:13:14.587Z,5552
2018-12-31T11:14:29.175Z,5632
2018-12-31T11:15:14.614Z,5608
2018-12-31T11:16:14.543Z,5648
2018-12-31T11:18:14.575Z,5204
2018-12-31T11:19:14.594Z,5104
2018-12-31T11:20:14.610Z,5016
2018-12-31T11:21:14.627Z,4904
2018-12-31T11:22:14.654Z,4836
2018-12-31T11:23:29.325Z,4868
2018-12-31T11:24:29.341Z,4852
2018-12-31T11:25:14.696Z,4804
2018-12-31T11:26:29.377Z,4728
2018-12-31T11:27:29.394Z,4596
2018-12-31T11:28:14.808Z,4464
2018-12-31T11:29:29.435Z,4288
2018-12-31T11:31:14.802Z,4108
2018-12-31T11:32:14.818Z,4032
2018-12-31T11:33:14.835Z,3972
2018-12-31T11:34:14.854Z,3980
2018-12-31T11:35:14.869Z,4080
2018-12-31T11:36:29.553Z,4212
2018-12-31T11:37:14.925Z,4240
2018-12-31T11:38:14.921Z,4292
2018-12-31T11:39:14.943Z,4340
2018-12-31T11:41:14.981Z,4348
2018-12-31T11:42:14.997Z,4328
2018-12-31T11:43:15.012Z,4320
2018-12-31T11:44:15.035Z,4360
2018-12-31T11:45:15.050Z,4448
2018-12-31T11:46:15.063Z,4500
2018-12-31T11:47:15.081Z,4492
2018-12-31T11:48:15.096Z,4404
2018-12-31T11:49:15.112Z,4264
2018-12-31T11:50:15.135Z,4136
2018-12-31T11:51:15.176Z,4004
2018-12-31T11:52:15.176Z,3844
2018-12-31T11:53:15.182Z,3688
2018-12-31T11:54:15.198Z,3544
2018-12-31T11:55:15.221Z,3440
2018-12-31T11:56:29.899Z,3376
2018-12-31T11:57:15.253Z,3368
2018-12-31T11:58:15.268Z,3364
2018-12-31T11:59:15.284Z,3360
2018-12-31T12:00:15.305Z,3360
2018-12-31T12:01:29.983Z,3356
2018-12-31T12:02:15.341Z,3352
2018-12-31T12:03:15.359Z,3360
2018-12-31T12:04:15.379Z,3380
2018-12-31T12:05:15.390Z,3404
2018-12-31T12:06:15.408Z,3420
2018-12-31T12:07:15.433Z,3452
2018-12-31T12:08:15.441Z,3512
2018-12-31T12:09:15.475Z,3528
2018-12-31T12:10:15.494Z,3488
2018-12-31T12:11:15.509Z,3480
2018-12-31T12:12:15.966Z,3456
2018-12-31T12:13:15.889Z,3424
2018-12-31T12:14:15.562Z,3432
2018-12-31T12:15:15.590Z,3488
2018-12-31T12:16:15.606Z,3576
2018-12-31T12:17:30.277Z,3668
2018-12-31T12:18:15.638Z,3672
2018-12-31T12:19:15.647Z,3612
2018-12-31T12:20:15.668Z,3532
2018-12-31T12:21:16.217Z,3508
2018-12-31T12:22:15.718Z,3556
2018-12-31T12:24:15.746Z,3588
2018-12-31T12:25:15.763Z,3456
2018-12-31T12:26:30.433Z,3252
2018-12-31T12:28:30.468Z,3080
2018-12-31T12:29:15.824Z,3096
2018-12-31T12:30:16.371Z,3172
2018-12-31T12:31:15.859Z,3368
2018-12-31T12:32:15.884Z,3592
2018-12-31T12:33:30.604Z,3856
2018-12-31T12:34:15.922Z,3920
2018-12-31T12:36:15.939Z,4004
2018-12-31T12:37:30.628Z,4088
2018-12-31T12:38:16.167Z,4204
2018-12-31T12:39:16.707Z,4464
2018-12-31T12:40:30.681Z,4612
2018-12-31T12:41:16.027Z,4584
2018-12-31T12:42:30.714Z,4348
2018-12-31T12:43:16.142Z,4208
2018-12-31T12:44:16.083Z,4160
2018-12-31T12:45:16.112Z,4176
2018-12-31T12:46:16.132Z,4124
2018-12-31T12:48:16.517Z,3952
2018-12-31T12:49:30.837Z,3888
2018-12-31T12:50:16.194Z,3868
2018-12-31T12:51:16.215Z,3844
2018-12-31T12:52:16.230Z,3808
2018-12-31T12:53:17.577Z,3812
2018-12-31T12:54:16.357Z,3780
2018-12-31T12:55:16.298Z,3628
2018-12-31T12:56:31.264Z,3348
2018-12-31T12:57:16.681Z,3184
2018-12-31T12:58:16.443Z,2968
2018-12-31T12:59:16.356Z,2780
2018-12-31T13:00:16.375Z,2636
2018-12-31T13:01:16.388Z,2512
2018-12-31T13:02:16.398Z,2436
2018-12-31T13:03:31.082Z,2292
2018-12-31T13:04:31.097Z,2100
2018-12-31T13:05:31.578Z,1968
2018-12-31T13:06:31.179Z,1952
2018-12-31T13:07:16.492Z,1988
2018-12-31T13:08:31.175Z,2096
2018-12-31T13:09:16.526Z,2172
2018-12-31T13:10:16.541Z,2296
2018-12-31T13:11:16.568Z,2412
2018-12-31T13:12:31.248Z,2436
2018-12-31T13:14:17.308Z,2368
2018-12-31T13:16:16.665Z,2536
2018-12-31T13:17:16.675Z,2484
2018-12-31T13:18:16.696Z,2344
2018-12-31T13:19:16.710Z,2260
2018-12-31T13:20:31.379Z,2184
2018-12-31T13:21:16.751Z,2208
2018-12-31T13:22:16.768Z,2232
2018-12-31T13:23:17.453Z,2172
2018-12-31T13:24:16.796Z,2120
2018-12-31T13:25:16.811Z,2136
2018-12-31T13:26:31.489Z,2200
2018-12-31T13:27:16.856Z,2200
2018-12-31T13:28:16.867Z,2184
2018-12-31T13:29:16.880Z,2172
2018-12-31T13:30:17.713Z,2192
2018-12-31T13:31:16.924Z,2204
2018-12-31T13:32:17.546Z,2184
2018-12-31T13:33:16.959Z,2176
2018-12-31T13:34:16.972Z,2140
2018-12-31T13:35:16.982Z,2008
2018-12-31T13:36:31.668Z,1836
2018-12-31T13:37:17.034Z,1784
2018-12-31T13:38:17.040Z,1736
2018-12-31T13:39:17.058Z,1704
2018-12-31T13:40:17.280Z,1700
2018-12-31T13:41:17.375Z,1724
2018-12-31T13:42:17.110Z,1760
2018-12-31T13:43:17.134Z,1808
2018-12-31T13:44:31.798Z,1912
2018-12-31T13:45:16.977Z,2024
2018-12-31T13:46:17.173Z,2164
2018-12-31T13:47:17.198Z,2208
2018-12-31T13:48:16.970Z,2180
2018-12-31T13:49:19.059Z,2048
2018-12-31T13:50:31.970Z,1820
2018-12-31T13:51:17.289Z,1744
2018-12-31T13:52:32.198Z,1664
2018-12-31T13:53:17.351Z,1624
2018-12-31T13:54:17.073Z,1584
2018-12-31T13:55:18.797Z,1524
2018-12-31T13:56:17.354Z,1428
2018-12-31T13:57:17.480Z,1320
2018-12-31T13:58:17.820Z,1220
2018-12-31T13:59:17.408Z,1152
2018-12-31T14:00:17.490Z,1124
2018-12-31T14:01:17.442Z,1132
2018-12-31T14:02:17.453Z,1164
2018-12-31T14:03:24.742Z,1196
2018-12-31T14:04:17.490Z,1204
2018-12-31T14:05:32.177Z,1176
2018-12-31T14:06:17.557Z,1128
2018-12-31T14:07:17.898Z,1044
2018-12-31T14:08:32.229Z,936
2018-12-31T14:09:17.638Z,892
2018-12-31T14:10:17.598Z,836
2018-12-31T14:11:18.106Z,784
2018-12-31T14:12:17.630Z,736
2018-12-31T14:13:17.645Z,692
2018-12-31T14:14:32.324Z,644
2018-12-31T14:15:17.689Z,632
2018-12-31T14:16:18.213Z,624
2018-12-31T14:17:17.720Z,624
2018-12-31T14:18:17.741Z,624
2018-12-31T14:19:17.763Z,636
2018-12-31T14:20:17.777Z,640
2018-12-31T14:22:32.465Z,628
2018-12-31T14:23:17.837Z,612
2018-12-31T14:24:32.508Z,576
2018-12-31T14:25:18.681Z,556
2018-12-31T14:26:17.887Z,532
2018-12-31T14:28:17.908Z,480
2018-12-31T14:29:17.689Z,444
2018-12-31T14:30:32.612Z,408
2018-12-31T14:32:17.984Z,384
2018-12-31T14:33:19.003Z,380
2018-12-31T14:34:18.624Z,380
2018-12-31T14:35:18.032Z,384
2018-12-31T14:36:18.055Z,384
2018-12-31T14:38:18.096Z,368
2018-12-31T14:39:32.765Z,348
2018-12-31T14:40:18.121Z,332
2018-12-31T14:41:18.439Z,312
2018-12-31T14:42:18.379Z,292
2018-12-31T14:43:18.487Z,272
2018-12-31T14:44:18.187Z,260
2018-12-31T14:45:18.202Z,248
2018-12-31T14:46:18.219Z,236
2018-12-31T14:47:25.408Z,216
2018-12-31T14:48:18.262Z,204
2018-12-31T14:49:18.276Z,192
2018-12-31T14:50:18.296Z,180
2018-12-31T14:51:18.849Z,164
2018-12-31T14:52:18.333Z,148
2018-12-31T14:53:18.352Z,140
2018-12-31T14:54:18.373Z,128
2018-12-31T14:56:18.389Z,108
2018-12-31T14:57:18.418Z,96
2018-12-31T14:58:20.183Z,84
2018-12-31T14:59:18.450Z,76
2018-12-31T15:00:19.191Z,72
2018-12-31T15:01:18.494Z,68
2018-12-31T15:02:18.506Z,60
2018-12-31T15:03:18.524Z,52
2018-12-31T15:04:18.542Z,48
2018-12-31T15:05:18.559Z,44
2018-12-31T15:06:18.570Z,40
2018-12-31T15:07:18.587Z,40
2018-12-31T15:08:18.608Z,36
2018-12-31T15:09:19.062Z,32
2018-12-31T15:10:33.311Z,32
2018-12-31T15:11:33.967Z,24
2018-12-31T15:12:18.773Z,24
2018-12-31T15:13:18.674Z,20
2018-12-31T15:14:33.366Z,20
2018-12-31T15:15:33.385Z,16
2018-12-31T15:16:18.743Z,12